createdAt,value
2022-12-11T00:01:18.888Z,12.60
2022-12-11T00:03:46.449Z,14.07
2022-12-11T00:06:15.632Z,12.60
2022-12-11T00:08:42.876Z,12.10
2022-12-11T00:11:12.614Z,12.38
2022-12-11T00:13:39.455Z,10.80
2022-12-11T00:16:06.271Z,10.73
2022-12-11T00:18:33.057Z,10.68
2022-12-11T00:21:01.644Z,10.90
2022-12-11T00:23:28.891Z,9.68
2022-12-11T00:25:55.711Z,8.68
2022-12-11T00:28:22.657Z,7.95
2022-12-11T00:30:49.777Z,9.32
2022-12-11T00:33:17.326Z,8.57
2022-12-11T00:35:46.034Z,8.57
2022-12-11T00:38:21.584Z,8.02
2022-12-11T00:40:49.143Z,8.25
2022-12-11T00:43:16.267Z,7.72
2022-12-11T00:45:44.927Z,8.45
2022-12-11T00:48:12.513Z,7.80
2022-12-11T00:50:40.140Z,6.85
2022-12-11T00:53:07.542Z,7.32
2022-12-11T00:55:39.229Z,8.27
2022-12-11T00:58:05.971Z,6.53
2022-12-11T01:00:32.649Z,7.00
2022-12-11T01:02:59.467Z,7.50
2022-12-11T01:05:26.237Z,7.38
2022-12-11T01:07:52.959Z,7.10
2022-12-11T01:10:25.940Z,8.35
2022-12-11T01:13:01.653Z,7.50
2022-12-11T01:15:31.603Z,7.88
2022-12-11T01:17:58.621Z,7.25
2022-12-11T01:20:26.308Z,6.78
2022-12-11T01:22:58.206Z,6.95
2022-12-11T01:25:25.922Z,7.95
2022-12-11T01:27:54.004Z,9.10
2022-12-11T01:30:22.721Z,8.30
2022-12-11T01:32:49.815Z,9.18
2022-12-11T01:35:17.481Z,10.75
2022-12-11T01:37:44.225Z,9.60
2022-12-11T01:40:14.306Z,12.13
2022-12-11T01:42:40.981Z,12.35
2022-12-11T01:45:27.233Z,11.52
2022-12-11T01:48:01.181Z,11.85
2022-12-11T01:50:29.491Z,11.45
2022-12-11T01:52:56.501Z,9.95
2022-12-11T01:55:23.825Z,10.43
2022-12-11T01:57:52.123Z,10.70
2022-12-11T02:00:20.257Z,10.75
2022-12-11T02:02:47.088Z,11.10
2022-12-11T02:05:13.940Z,11.18
2022-12-11T02:07:50.667Z,10.75
2022-12-11T02:10:17.646Z,10.63
2022-12-11T02:13:02.839Z,10.52
2022-12-11T02:15:41.612Z,8.60
2022-12-11T02:18:36.734Z,8.35
2022-12-11T02:21:08.966Z,8.80
2022-12-11T02:24:00.758Z,8.38
2022-12-11T02:26:45.675Z,8.60
2022-12-11T02:29:19.833Z,7.75
2022-12-11T02:32:25.765Z,8.25
2022-12-11T02:35:07.764Z,7.75
2022-12-11T02:37:38.658Z,8.65
2022-12-11T02:40:09.196Z,10.05
2022-12-11T02:42:37.880Z,8.68
2022-12-11T02:45:06.582Z,8.13
2022-12-11T02:47:34.084Z,9.00
2022-12-11T02:50:03.417Z,8.82
2022-12-11T02:52:32.594Z,8.27
2022-12-11T02:55:01.197Z,8.23
2022-12-11T02:57:30.113Z,10.15
2022-12-11T02:59:56.967Z,9.13
2022-12-11T03:02:23.870Z,8.85
2022-12-11T03:04:50.696Z,8.70
2022-12-11T03:07:25.948Z,7.93
2022-12-11T03:09:53.299Z,6.70
2022-12-11T03:12:29.714Z,7.18
2022-12-11T03:15:00.708Z,8.13
2022-12-11T03:17:52.398Z,8.02
2022-12-11T03:20:25.178Z,7.00
2022-12-11T03:23:21.142Z,6.97
2022-12-11T03:25:59.397Z,6.88
2022-12-11T03:28:42.229Z,8.60
2022-12-11T03:31:13.962Z,7.80
2022-12-11T03:33:43.682Z,8.27
2022-12-11T03:36:16.555Z,7.68
2022-12-11T03:38:58.226Z,7.88
2022-12-11T03:41:27.659Z,8.43
2022-12-11T03:43:58.481Z,7.85
2022-12-11T03:46:35.389Z,7.80
2022-12-11T03:49:09.425Z,7.50
2022-12-11T03:51:37.200Z,8.07
2022-12-11T03:54:04.113Z,7.53
2022-12-11T03:56:33.756Z,6.75
2022-12-11T03:59:00.484Z,7.00
2022-12-11T04:01:27.748Z,7.95
2022-12-11T04:03:54.543Z,7.72
2022-12-11T04:06:21.347Z,8.48
2022-12-11T04:08:48.031Z,8.35
2022-12-11T04:11:33.580Z,7.53
2022-12-11T04:14:26.903Z,6.85
2022-12-11T04:16:54.000Z,7.35
2022-12-11T04:19:40.331Z,6.97
2022-12-11T04:22:25.799Z,6.47
2022-12-11T04:24:52.695Z,6.43
2022-12-11T04:27:39.347Z,7.25
2022-12-11T04:30:10.910Z,7.28
2022-12-11T04:32:37.636Z,5.15
2022-12-11T04:35:06.491Z,7.32
2022-12-11T04:37:33.312Z,6.70
2022-12-11T04:39:59.969Z,6.38
2022-12-11T04:42:26.667Z,7.25
2022-12-11T04:44:53.310Z,7.75
2022-12-11T04:47:20.058Z,7.57
2022-12-11T04:49:46.893Z,6.97
2022-12-11T04:52:13.629Z,7.47
2022-12-11T04:54:40.374Z,7.13
2022-12-11T04:57:07.026Z,8.18
2022-12-11T04:59:33.966Z,6.70
2022-12-11T05:02:00.974Z,8.13
2022-12-11T05:04:32.646Z,7.82
2022-12-11T05:06:59.957Z,8.02
2022-12-11T05:09:27.370Z,8.50
2022-12-11T05:11:54.640Z,9.02
2022-12-11T05:14:21.656Z,6.95
2022-12-11T05:16:48.417Z,9.13
2022-12-11T05:19:15.278Z,7.35
2022-12-11T05:21:42.107Z,8.15
2022-12-11T05:24:08.966Z,6.57
2022-12-11T05:26:35.732Z,7.88
2022-12-11T05:29:02.454Z,7.25
2022-12-11T05:31:29.320Z,8.63
2022-12-11T05:33:56.055Z,7.72
2022-12-11T05:36:28.559Z,6.72
2022-12-11T05:38:56.981Z,7.00
2022-12-11T05:41:25.588Z,6.38
2022-12-11T05:43:52.434Z,6.93
2022-12-11T05:46:22.318Z,7.80
2022-12-11T05:48:51.675Z,6.57
2022-12-11T05:51:19.609Z,6.85
2022-12-11T05:53:48.044Z,7.85
2022-12-11T05:56:19.033Z,7.78
2022-12-11T05:58:46.999Z,7.20
2022-12-11T06:01:17.748Z,7.10
2022-12-11T06:03:44.763Z,6.72
2022-12-11T06:06:12.065Z,8.02
2022-12-11T06:08:38.964Z,6.93
2022-12-11T06:11:07.019Z,6.43
2022-12-11T06:13:34.054Z,7.30
2022-12-11T06:16:05.853Z,7.10
2022-12-11T06:18:39.400Z,8.23
2022-12-11T06:21:16.113Z,6.88
2022-12-11T06:23:43.573Z,9.43
2022-12-11T06:26:11.601Z,8.55
2022-12-11T06:28:38.767Z,8.65
2022-12-11T06:31:05.854Z,7.03
2022-12-11T06:33:32.965Z,7.63
2022-12-11T06:36:04.639Z,10.52
2022-12-11T06:38:31.557Z,10.13
2022-12-11T06:40:59.812Z,9.38
2022-12-11T06:43:26.827Z,8.80
2022-12-11T06:45:55.096Z,8.98
2022-12-11T06:48:23.618Z,9.57
2022-12-11T06:50:50.341Z,11.05
2022-12-11T06:53:17.260Z,10.82
2022-12-11T06:55:44.105Z,9.88
2022-12-11T06:58:11.704Z,9.57
2022-12-11T07:00:39.026Z,10.68
2022-12-11T07:03:06.294Z,9.93
2022-12-11T07:05:33.638Z,9.95
2022-12-11T07:08:00.397Z,9.38
2022-12-11T07:10:27.390Z,9.27
2022-12-11T07:12:54.549Z,12.18
2022-12-11T07:15:21.589Z,10.40
2022-12-11T07:17:48.314Z,10.15
2022-12-11T07:20:15.053Z,10.02
2022-12-11T07:22:46.425Z,11.82
2022-12-11T07:25:14.472Z,10.25
2022-12-11T07:27:41.765Z,9.57
2022-12-11T07:30:09.543Z,9.95
2022-12-11T07:32:36.313Z,9.80
2022-12-11T07:35:03.360Z,10.73
2022-12-11T07:37:30.040Z,10.07
2022-12-11T07:39:56.785Z,10.25
2022-12-11T07:42:23.748Z,11.05
2022-12-11T07:44:50.470Z,9.45
2022-12-11T07:47:17.147Z,10.48
2022-12-11T07:49:43.826Z,10.10
2022-12-11T07:52:10.576Z,8.95
2022-12-11T07:54:37.369Z,9.50
2022-12-11T07:57:04.899Z,10.77
2022-12-11T07:59:33.013Z,8.98
2022-12-11T08:01:59.854Z,9.70
2022-12-11T08:04:26.663Z,10.52
2022-12-11T08:06:53.385Z,9.60
2022-12-11T08:09:22.660Z,8.85
2022-12-11T08:11:50.576Z,8.38
2022-12-11T08:14:17.735Z,10.73
2022-12-11T08:16:44.739Z,9.15
2022-12-11T08:19:13.001Z,7.53
2022-12-11T08:21:40.282Z,5.20
2022-12-11T08:24:08.305Z,6.45
2022-12-11T08:26:35.137Z,7.07
2022-12-11T08:29:02.793Z,7.88
2022-12-11T08:31:29.919Z,7.95
2022-12-11T08:33:57.549Z,9.25
2022-12-11T08:36:25.415Z,7.03
2022-12-11T08:38:55.273Z,8.80
2022-12-11T08:41:24.838Z,7.40
2022-12-11T08:43:54.899Z,8.27
2022-12-11T08:46:23.951Z,8.63
2022-12-11T08:48:50.726Z,8.10
2022-12-11T08:51:22.650Z,8.35
2022-12-11T08:53:50.055Z,7.95
2022-12-11T08:56:19.843Z,7.05
2022-12-11T08:58:47.561Z,6.95
2022-12-11T09:01:18.061Z,7.32
2022-12-11T09:03:44.924Z,6.93
2022-12-11T09:06:14.578Z,5.82
2022-12-11T09:08:46.011Z,7.05
2022-12-11T09:11:19.930Z,6.63
2022-12-11T09:13:46.816Z,6.25
2022-12-11T09:16:16.344Z,6.50
2022-12-11T09:18:45.147Z,6.93
2022-12-11T09:21:14.087Z,5.90
2022-12-11T09:23:41.145Z,6.03
2022-12-11T09:26:13.006Z,6.68
2022-12-11T09:28:45.761Z,7.78
2022-12-11T09:31:19.657Z,7.53
2022-12-11T09:33:46.791Z,6.45
2022-12-11T09:36:13.686Z,6.95
2022-12-11T09:38:40.430Z,6.38
2022-12-11T09:41:36.943Z,7.20
2022-12-11T09:44:15.733Z,7.30
2022-12-11T09:46:43.501Z,5.97
2022-12-11T09:49:23.342Z,7.88
2022-12-11T09:52:07.417Z,5.63
2022-12-11T09:54:34.410Z,7.28
2022-12-11T09:57:11.732Z,8.27
2022-12-11T10:00:05.682Z,7.85
2022-12-11T10:03:09.535Z,6.05
2022-12-11T10:05:41.774Z,6.93
2022-12-11T10:08:30.521Z,6.22
2022-12-11T10:11:19.994Z,6.97
2022-12-11T10:14:06.018Z,8.45
2022-12-11T10:16:38.965Z,7.97
2022-12-11T10:19:05.896Z,6.93
2022-12-11T10:21:43.029Z,8.35
2022-12-11T10:25:09.466Z,7.47
2022-12-11T10:27:28.487Z,9.07
2022-12-11T10:30:18.428Z,7.65
2022-12-11T10:32:54.140Z,7.90
2022-12-11T10:35:27.044Z,8.05
2022-12-11T10:38:12.155Z,7.20
2022-12-11T10:40:45.123Z,9.35
2022-12-11T10:43:12.617Z,10.00
2022-12-11T10:45:39.479Z,9.55
2022-12-11T10:48:10.502Z,10.27
2022-12-11T10:50:38.386Z,10.10
2022-12-11T10:53:05.820Z,11.05
2022-12-11T10:55:47.462Z,8.50
2022-12-11T10:58:24.090Z,9.17
2022-12-11T11:01:15.401Z,10.23
2022-12-11T11:04:34.738Z,9.73
2022-12-11T11:07:17.017Z,10.15
2022-12-11T11:09:43.831Z,9.13
2022-12-11T11:12:59.832Z,9.90
2022-12-11T11:15:29.227Z,7.88
2022-12-11T11:18:00.575Z,9.82
2022-12-11T11:20:30.075Z,10.00
2022-12-11T11:23:00.198Z,9.65
2022-12-11T11:25:29.408Z,11.43
2022-12-11T11:28:02.433Z,9.57
2022-12-11T11:30:33.971Z,10.68
2022-12-11T11:33:13.241Z,9.13
2022-12-11T11:35:45.644Z,10.00
2022-12-11T11:38:12.735Z,8.23
2022-12-11T11:41:14.713Z,9.75
2022-12-11T11:43:55.283Z,9.30
2022-12-11T11:46:24.498Z,9.48
2022-12-11T11:49:02.658Z,10.43
2022-12-11T11:51:37.003Z,9.68
2022-12-11T11:54:25.337Z,10.88
2022-12-11T11:56:55.757Z,9.90
2022-12-11T11:59:34.713Z,8.98
2022-12-11T12:02:01.612Z,10.95
2022-12-11T12:04:33.966Z,11.38
2022-12-11T12:07:23.748Z,12.23
2022-12-11T12:10:02.735Z,8.60
2022-12-11T12:12:38.276Z,10.43
2022-12-11T12:15:04.970Z,10.75
2022-12-11T12:17:36.213Z,11.00
2022-12-11T12:20:41.139Z,10.48
2022-12-11T12:23:25.898Z,9.55
2022-12-11T12:26:04.556Z,9.45
2022-12-11T12:28:38.261Z,8.95
2022-12-11T12:31:13.429Z,8.23
2022-12-11T12:33:43.291Z,9.98
2022-12-11T12:36:33.275Z,8.88
2022-12-11T12:39:01.832Z,9.60
2022-12-11T12:41:42.319Z,9.80
2022-12-11T12:44:21.725Z,10.25
2022-12-11T12:46:59.629Z,9.55
2022-12-11T12:49:57.412Z,9.30
2022-12-11T12:52:36.867Z,9.68
2022-12-11T12:55:14.194Z,9.40
2022-12-11T12:58:05.581Z,9.75
2022-12-11T13:00:41.467Z,9.88
2022-12-11T13:03:16.038Z,10.90
2022-12-11T13:05:45.929Z,11.48
2022-12-11T13:08:13.565Z,13.02
2022-12-11T13:10:43.353Z,9.55
2022-12-11T13:13:38.285Z,12.05
2022-12-11T13:16:25.677Z,10.70
2022-12-11T13:18:53.427Z,11.18
2022-12-11T13:21:40.072Z,12.13
2022-12-11T13:24:16.545Z,11.32
2022-12-11T13:26:44.672Z,9.90
2022-12-11T13:29:40.831Z,11.07
2022-12-11T13:32:10.906Z,9.82
2022-12-11T13:34:40.536Z,12.65
2022-12-11T13:37:21.518Z,12.10
2022-12-11T13:39:48.366Z,10.93
2022-12-11T13:42:31.577Z,12.23
2022-12-11T13:44:58.827Z,11.35
2022-12-11T13:47:26.614Z,11.95
2022-12-11T13:49:59.807Z,24.20
2022-12-11T13:52:27.673Z,13.60
2022-12-11T13:54:56.101Z,13.35
2022-12-11T13:57:30.857Z,13.00
2022-12-11T13:59:59.477Z,12.32
2022-12-11T14:02:30.502Z,10.85
2022-12-11T14:05:07.013Z,10.80
2022-12-11T14:07:47.926Z,11.52
2022-12-11T14:10:14.668Z,11.48
2022-12-11T14:13:23.877Z,10.85
2022-12-11T14:15:52.295Z,10.57
2022-12-11T14:18:23.867Z,13.43
2022-12-11T14:20:58.731Z,13.23
2022-12-11T14:23:28.557Z,12.60
2022-12-11T14:25:58.048Z,14.85
2022-12-11T14:28:27.819Z,13.20
2022-12-11T14:31:00.751Z,13.77
2022-12-11T14:33:37.909Z,12.15
2022-12-11T14:36:06.085Z,11.50
2022-12-11T14:38:37.126Z,13.43
2022-12-11T14:41:11.426Z,14.48
2022-12-11T14:43:45.547Z,14.27
2022-12-11T14:46:19.003Z,11.98
2022-12-11T14:49:00.775Z,13.40
2022-12-11T14:51:31.314Z,14.63
2022-12-11T14:53:58.605Z,12.00
2022-12-11T14:56:29.034Z,11.80
2022-12-11T14:59:06.434Z,12.30
2022-12-11T15:01:35.427Z,14.68
2022-12-11T15:04:16.346Z,16.58
2022-12-11T15:06:45.586Z,17.48
2022-12-11T15:09:25.793Z,15.70
2022-12-11T15:11:55.901Z,15.38
2022-12-11T15:14:24.626Z,13.55
2022-12-11T15:16:53.959Z,14.27
2022-12-11T15:19:27.970Z,15.15
2022-12-11T15:21:55.685Z,13.50
2022-12-11T15:24:30.635Z,12.48
2022-12-11T15:26:59.777Z,11.32
2022-12-11T15:29:35.202Z,17.45
2022-12-11T15:32:09.891Z,17.55
2022-12-11T15:34:58.454Z,16.58
2022-12-11T15:37:28.866Z,16.00
2022-12-11T15:39:57.664Z,14.60
2022-12-11T15:42:27.532Z,14.50
2022-12-11T15:44:55.598Z,16.05
2022-12-11T15:47:25.361Z,12.85
2022-12-11T15:49:57.178Z,14.50
2022-12-11T15:52:23.935Z,16.17
2022-12-11T15:54:54.467Z,16.52
2022-12-11T15:57:24.771Z,14.75
2022-12-11T15:59:54.040Z,13.95
2022-12-11T16:02:21.012Z,13.52
2022-12-11T16:04:47.880Z,14.18
2022-12-11T16:07:21.734Z,16.52
2022-12-11T16:09:49.242Z,15.10
2022-12-11T16:12:16.212Z,15.25
2022-12-11T16:14:48.053Z,14.95
2022-12-11T16:17:15.985Z,13.45
2022-12-11T16:19:45.727Z,13.88
2022-12-11T16:22:13.777Z,13.85
2022-12-11T16:24:40.846Z,14.15
2022-12-11T16:27:11.892Z,14.30
2022-12-11T16:29:41.336Z,16.15
2022-12-11T16:32:08.457Z,16.30
2022-12-11T16:34:36.116Z,17.17
2022-12-11T16:37:03.970Z,15.60
2022-12-11T16:39:30.767Z,14.85
2022-12-11T16:41:57.806Z,16.48
2022-12-11T16:44:26.933Z,14.55
2022-12-11T16:46:54.266Z,16.75
2022-12-11T16:49:22.672Z,14.55
2022-12-11T16:51:49.727Z,17.90
2022-12-11T16:54:17.403Z,13.98
2022-12-11T16:56:44.684Z,17.92
2022-12-11T16:59:12.994Z,15.85
2022-12-11T17:01:40.619Z,15.32
2022-12-11T17:04:07.904Z,16.73
2022-12-11T17:06:34.594Z,14.38
2022-12-11T17:09:01.528Z,17.88
2022-12-11T17:11:28.487Z,17.35
2022-12-11T17:14:00.220Z,16.00
2022-12-11T17:16:30.321Z,18.48
2022-12-11T17:18:57.864Z,17.92
2022-12-11T17:21:24.954Z,22.55
2022-12-11T17:23:52.176Z,20.23
2022-12-11T17:26:20.196Z,20.08
2022-12-11T17:28:46.977Z,20.48
2022-12-11T17:31:17.943Z,16.58
2022-12-11T17:33:46.063Z,17.65
2022-12-11T17:36:15.276Z,16.40
2022-12-11T17:38:41.982Z,16.13
2022-12-11T17:41:12.165Z,17.83
2022-12-11T17:43:41.969Z,15.50
2022-12-11T17:46:11.199Z,15.40
2022-12-11T17:48:38.068Z,13.73
2022-12-11T17:51:07.421Z,16.58
2022-12-11T17:53:34.968Z,16.42
2022-12-11T17:56:03.755Z,15.52
2022-12-11T17:58:31.032Z,14.52
2022-12-11T18:00:58.712Z,16.02
2022-12-11T18:03:26.896Z,14.68
2022-12-11T18:05:56.128Z,13.50
2022-12-11T18:08:30.184Z,13.02
2022-12-11T18:11:03.549Z,14.18
2022-12-11T18:13:30.315Z,15.20
2022-12-11T18:16:10.446Z,12.85
2022-12-11T18:18:37.785Z,14.57
2022-12-11T18:21:05.045Z,13.20
2022-12-11T18:23:31.933Z,16.55
2022-12-11T18:25:58.614Z,14.30
2022-12-11T18:28:25.456Z,15.73
2022-12-11T18:30:52.368Z,14.93
2022-12-11T18:33:19.181Z,17.02
2022-12-11T18:35:48.879Z,16.38
2022-12-11T18:38:15.830Z,15.05
2022-12-11T18:40:42.519Z,14.50
2022-12-11T18:43:09.266Z,17.55
2022-12-11T18:45:40.294Z,16.73
2022-12-11T18:48:08.319Z,16.25
2022-12-11T18:50:35.528Z,17.58
2022-12-11T18:53:02.613Z,16.08
2022-12-11T18:55:29.427Z,16.02
2022-12-11T18:57:56.090Z,16.52
2022-12-11T19:00:23.237Z,14.88
2022-12-11T19:02:52.199Z,14.27
2022-12-11T19:05:19.087Z,12.60
2022-12-11T19:07:45.844Z,16.33
2022-12-11T19:10:12.908Z,14.50
2022-12-11T19:12:39.577Z,12.40
2022-12-11T19:15:06.983Z,13.93
2022-12-11T19:17:33.659Z,14.50
2022-12-11T19:20:18.663Z,13.52
2022-12-11T19:22:48.746Z,11.88
2022-12-11T19:25:15.486Z,11.30
2022-12-11T19:27:42.134Z,12.65
2022-12-11T19:30:10.841Z,12.55
2022-12-11T19:32:37.557Z,12.00
2022-12-11T19:35:04.521Z,9.95
2022-12-11T19:37:31.210Z,13.63
2022-12-11T19:39:57.916Z,10.68
2022-12-11T19:42:26.209Z,12.18
2022-12-11T19:44:52.996Z,9.68
2022-12-11T19:47:19.652Z,10.80
2022-12-11T19:49:48.262Z,10.02
2022-12-11T19:52:15.271Z,11.70
2022-12-11T19:54:42.012Z,9.43
2022-12-11T19:57:08.929Z,10.57
2022-12-11T19:59:35.913Z,10.63
2022-12-11T20:02:02.592Z,10.40
2022-12-11T20:04:29.468Z,9.30
2022-12-11T20:06:56.174Z,10.20
2022-12-11T20:09:24.227Z,9.27
2022-12-11T20:11:50.922Z,9.73
2022-12-11T20:14:23.834Z,9.18
2022-12-11T20:17:10.507Z,8.88
2022-12-11T20:19:38.503Z,7.95
2022-12-11T20:22:05.612Z,8.10
2022-12-11T20:24:32.355Z,9.02
2022-12-11T20:26:59.073Z,10.02
2022-12-11T20:29:26.212Z,9.85
2022-12-11T20:31:53.142Z,8.95
2022-12-11T20:34:20.200Z,8.40
2022-12-11T20:36:51.690Z,9.38
2022-12-11T20:39:18.354Z,9.37
2022-12-11T20:41:45.023Z,8.63
2022-12-11T20:44:11.686Z,8.65
2022-12-11T20:46:38.333Z,8.05
2022-12-11T20:49:08.144Z,7.07
2022-12-11T20:51:34.852Z,7.30
2022-12-11T20:54:01.659Z,9.70
2022-12-11T20:56:30.879Z,8.10
2022-12-11T20:58:59.208Z,8.02
2022-12-11T21:01:28.391Z,7.68
2022-12-11T21:03:55.177Z,6.78
2022-12-11T21:06:31.024Z,6.75
2022-12-11T21:09:00.058Z,8.40
2022-12-11T21:11:26.896Z,8.43
2022-12-11T21:13:53.997Z,8.15
2022-12-11T21:16:21.505Z,7.10
2022-12-11T21:18:48.785Z,6.93
2022-12-11T21:21:16.225Z,8.50
2022-12-11T21:23:43.365Z,7.47
2022-12-11T21:26:10.651Z,8.20
2022-12-11T21:28:37.434Z,7.57
2022-12-11T21:31:07.990Z,7.22
2022-12-11T21:33:35.412Z,8.70
2022-12-11T21:36:02.963Z,7.05
2022-12-11T21:38:30.038Z,8.27
2022-12-11T21:40:56.921Z,7.35
2022-12-11T21:43:24.763Z,8.73
2022-12-11T21:46:00.862Z,8.15
2022-12-11T21:48:28.523Z,7.70
2022-12-11T21:50:55.232Z,8.80
2022-12-11T21:53:21.928Z,10.13
2022-12-11T21:55:48.678Z,10.15
2022-12-11T21:58:15.680Z,9.88
2022-12-11T22:00:42.405Z,8.15
2022-12-11T22:03:09.315Z,7.30
2022-12-11T22:05:36.081Z,8.65
2022-12-11T22:08:02.944Z,7.60
2022-12-11T22:10:30.080Z,8.15
2022-12-11T22:12:56.806Z,7.95
2022-12-11T22:15:23.817Z,8.10
2022-12-11T22:17:50.631Z,7.03
2022-12-11T22:20:18.187Z,8.48
2022-12-11T22:22:45.111Z,7.68
2022-12-11T22:25:12.155Z,7.68
2022-12-11T22:27:39.147Z,8.07
2022-12-11T22:30:06.512Z,7.63
2022-12-11T22:32:33.242Z,7.43
2022-12-11T22:34:59.942Z,7.65
2022-12-11T22:37:26.673Z,7.50
2022-12-11T22:39:53.500Z,7.22
2022-12-11T22:42:20.321Z,8.38
2022-12-11T22:44:47.053Z,8.40
2022-12-11T22:47:13.854Z,12.20
2022-12-11T22:49:40.600Z,8.27
2022-12-11T22:52:07.341Z,10.85
2022-12-11T22:54:34.066Z,8.93
2022-12-11T22:57:01.431Z,6.90
2022-12-11T22:59:28.404Z,6.57
2022-12-11T23:01:55.279Z,7.07
2022-12-11T23:04:22.051Z,9.63
2022-12-11T23:06:48.816Z,9.30
2022-12-11T23:09:15.696Z,7.82
2022-12-11T23:11:42.851Z,8.40
2022-12-11T23:14:14.402Z,7.75
2022-12-11T23:16:41.783Z,5.37
2022-12-11T23:19:09.069Z,10.50
2022-12-11T23:21:35.845Z,6.43
2022-12-11T23:24:03.995Z,8.57
2022-12-11T23:26:31.313Z,6.63
2022-12-11T23:28:59.265Z,8.00
2022-12-11T23:31:27.956Z,5.35
2022-12-11T23:33:54.731Z,5.72
2022-12-11T23:36:21.665Z,5.95
2022-12-11T23:38:54.377Z,4.55
2022-12-11T23:41:22.500Z,5.70
2022-12-11T23:43:49.250Z,5.60
2022-12-11T23:46:21.424Z,4.15
2022-12-11T23:48:48.658Z,5.45
2022-12-11T23:51:18.278Z,4.43
2022-12-11T23:53:45.729Z,4.20
2022-12-11T23:56:16.144Z,5.43
2022-12-11T23:58:43.237Z,5.57
